sensor_id;sensor_type;location;lat;lon;timestamp;P1;durP1;ratioP1;P2;durP2;ratioP2
12332;SDS011;6232;48.094;11.288;2022-12-17T00:02:35;29.77;;;15.33;;
12332;SDS011;6232;48.094;11.288;2022-12-17T00:05:39;24.37;;;13.53;;
12332;SDS011;6232;48.094;11.288;2022-12-17T00:08:43;26.57;;;14.40;;
12332;SDS011;6232;48.094;11.288;2022-12-17T00:11:49;22.70;;;12.67;;
12332;SDS011;6232;48.094;11.288;2022-12-17T00:14:53;27.13;;;14.50;;
12332;SDS011;6232;48.094;11.288;2022-12-17T00:18:04;22.40;;;12.90;;
12332;SDS011;6232;48.094;11.288;2022-12-17T00:21:09;22.10;;;13.73;;
12332;SDS011;6232;48.094;11.288;2022-12-17T00:24:13;25.60;;;15.40;;
12332;SDS011;6232;48.094;11.288;2022-12-17T00:27:17;24.87;;;15.30;;
12332;SDS011;6232;48.094;11.288;2022-12-17T00:30:21;26.30;;;14.80;;
12332;SDS011;6232;48.094;11.288;2022-12-17T00:33:26;25.93;;;15.60;;
12332;SDS011;6232;48.094;11.288;2022-12-17T00:36:30;25.33;;;15.37;;
12332;SDS011;6232;48.094;11.288;2022-12-17T00:39:34;26.83;;;14.03;;
12332;SDS011;6232;48.094;11.288;2022-12-17T00:42:38;22.63;;;13.87;;
12332;SDS011;6232;48.094;11.288;2022-12-17T00:45:43;26.97;;;15.53;;
12332;SDS011;6232;48.094;11.288;2022-12-17T00:48:47;22.17;;;12.43;;
12332;SDS011;6232;48.094;11.288;2022-12-17T00:51:51;21.07;;;12.83;;
12332;SDS011;6232;48.094;11.288;2022-12-17T00:54:55;25.93;;;14.07;;
12332;SDS011;6232;48.094;11.288;2022-12-17T00:57:59;23.33;;;15.00;;
12332;SDS011;6232;48.094;11.288;2022-12-17T01:01:04;25.20;;;14.53;;
12332;SDS011;6232;48.094;11.288;2022-12-17T01:04:08;35.37;;;16.83;;
12332;SDS011;6232;48.094;11.288;2022-12-17T01:07:12;28.43;;;14.43;;
12332;SDS011;6232;48.094;11.288;2022-12-17T01:10:16;26.30;;;14.67;;
12332;SDS011;6232;48.094;11.288;2022-12-17T01:13:21;24.53;;;14.33;;
12332;SDS011;6232;48.094;11.288;2022-12-17T01:16:25;38.73;;;15.70;;
12332;SDS011;6232;48.094;11.288;2022-12-17T01:19:29;24.40;;;13.97;;
12332;SDS011;6232;48.094;11.288;2022-12-17T01:22:33;27.40;;;13.37;;
12332;SDS011;6232;48.094;11.288;2022-12-17T01:25:38;21.77;;;15.37;;
12332;SDS011;6232;48.094;11.288;2022-12-17T01:28:42;26.70;;;14.60;;
12332;SDS011;6232;48.094;11.288;2022-12-17T01:31:46;23.37;;;14.70;;
12332;SDS011;6232;48.094;11.288;2022-12-17T01:34:50;19.67;;;15.17;;
12332;SDS011;6232;48.094;11.288;2022-12-17T01:37:54;22.57;;;14.17;;
12332;SDS011;6232;48.094;11.288;2022-12-17T01:40:59;20.73;;;14.17;;
12332;SDS011;6232;48.094;11.288;2022-12-17T01:47:27;25.10;;;14.50;;
12332;SDS011;6232;48.094;11.288;2022-12-17T01:50:34;24.20;;;16.10;;
12332;SDS011;6232;48.094;11.288;2022-12-17T01:53:40;26.23;;;16.03;;
12332;SDS011;6232;48.094;11.288;2022-12-17T01:56:45;29.43;;;15.07;;
12332;SDS011;6232;48.094;11.288;2022-12-17T01:59:52;18.77;;;13.57;;
12332;SDS011;6232;48.094;11.288;2022-12-17T02:02:58;27.80;;;16.10;;
12332;SDS011;6232;48.094;11.288;2022-12-17T02:06:05;34.33;;;18.40;;
12332;SDS011;6232;48.094;11.288;2022-12-17T02:12:26;26.80;;;15.63;;
12332;SDS011;6232;48.094;11.288;2022-12-17T02:15:36;35.47;;;17.10;;
12332;SDS011;6232;48.094;11.288;2022-12-17T02:18:44;37.23;;;15.90;;
12332;SDS011;6232;48.094;11.288;2022-12-17T02:21:50;24.20;;;14.90;;
12332;SDS011;6232;48.094;11.288;2022-12-17T02:25:05;32.30;;;17.13;;
12332;SDS011;6232;48.094;11.288;2022-12-17T02:28:12;27.90;;;17.60;;
12332;SDS011;6232;48.094;11.288;2022-12-17T02:31:17;29.43;;;17.23;;
12332;SDS011;6232;48.094;11.288;2022-12-17T02:34:21;46.67;;;16.43;;
12332;SDS011;6232;48.094;11.288;2022-12-17T02:37:26;37.33;;;17.67;;
12332;SDS011;6232;48.094;11.288;2022-12-17T02:40:30;25.43;;;16.57;;
12332;SDS011;6232;48.094;11.288;2022-12-17T02:43:35;38.17;;;19.53;;
12332;SDS011;6232;48.094;11.288;2022-12-17T02:46:40;31.50;;;16.97;;
12332;SDS011;6232;48.094;11.288;2022-12-17T02:49:45;24.97;;;14.23;;
12332;SDS011;6232;48.094;11.288;2022-12-17T02:52:49;29.80;;;17.90;;
12332;SDS011;6232;48.094;11.288;2022-12-17T02:55:57;32.40;;;17.80;;
12332;SDS011;6232;48.094;11.288;2022-12-17T02:59:02;28.37;;;16.70;;
12332;SDS011;6232;48.094;11.288;2022-12-17T03:02:05;34.70;;;18.73;;
12332;SDS011;6232;48.094;11.288;2022-12-17T03:05:10;31.40;;;18.57;;
12332;SDS011;6232;48.094;11.288;2022-12-17T03:08:14;31.27;;;16.57;;
12332;SDS011;6232;48.094;11.288;2022-12-17T03:11:18;27.80;;;16.60;;
12332;SDS011;6232;48.094;11.288;2022-12-17T03:14:23;26.10;;;13.97;;
12332;SDS011;6232;48.094;11.288;2022-12-17T03:17:27;32.20;;;17.37;;
12332;SDS011;6232;48.094;11.288;2022-12-17T03:20:31;29.90;;;17.13;;
12332;SDS011;6232;48.094;11.288;2022-12-17T03:23:36;26.60;;;17.47;;
12332;SDS011;6232;48.094;11.288;2022-12-17T03:26:40;34.83;;;18.03;;
12332;SDS011;6232;48.094;11.288;2022-12-17T03:29:45;29.70;;;17.57;;
12332;SDS011;6232;48.094;11.288;2022-12-17T03:32:49;33.03;;;16.90;;
12332;SDS011;6232;48.094;11.288;2022-12-17T03:35:53;27.97;;;16.97;;
12332;SDS011;6232;48.094;11.288;2022-12-17T03:39:05;32.40;;;17.77;;
12332;SDS011;6232;48.094;11.288;2022-12-17T03:42:09;25.43;;;16.33;;
12332;SDS011;6232;48.094;11.288;2022-12-17T03:45:13;31.83;;;18.80;;
12332;SDS011;6232;48.094;11.288;2022-12-17T03:48:17;25.97;;;16.13;;
12332;SDS011;6232;48.094;11.288;2022-12-17T03:51:21;28.77;;;15.80;;
12332;SDS011;6232;48.094;11.288;2022-12-17T03:54:26;28.57;;;16.53;;
12332;SDS011;6232;48.094;11.288;2022-12-17T03:57:30;28.03;;;16.60;;
12332;SDS011;6232;48.094;11.288;2022-12-17T04:00:34;36.60;;;17.67;;
12332;SDS011;6232;48.094;11.288;2022-12-17T04:03:38;22.20;;;15.63;;
12332;SDS011;6232;48.094;11.288;2022-12-17T04:06:42;31.20;;;17.40;;
12332;SDS011;6232;48.094;11.288;2022-12-17T04:09:46;34.03;;;17.93;;
12332;SDS011;6232;48.094;11.288;2022-12-17T04:12:51;31.33;;;17.47;;
12332;SDS011;6232;48.094;11.288;2022-12-17T04:15:55;32.43;;;17.27;;
12332;SDS011;6232;48.094;11.288;2022-12-17T04:18:59;25.07;;;16.40;;
12332;SDS011;6232;48.094;11.288;2022-12-17T04:22:04;33.07;;;18.30;;
12332;SDS011;6232;48.094;11.288;2022-12-17T04:25:08;41.13;;;17.17;;
12332;SDS011;6232;48.094;11.288;2022-12-17T04:28:12;21.13;;;14.93;;
12332;SDS011;6232;48.094;11.288;2022-12-17T04:31:17;29.93;;;16.60;;
12332;SDS011;6232;48.094;11.288;2022-12-17T04:34:21;23.13;;;13.97;;
12332;SDS011;6232;48.094;11.288;2022-12-17T04:37:25;32.70;;;15.00;;
12332;SDS011;6232;48.094;11.288;2022-12-17T04:40:34;27.03;;;15.13;;
12332;SDS011;6232;48.094;11.288;2022-12-17T04:43:37;38.17;;;16.90;;
12332;SDS011;6232;48.094;11.288;2022-12-17T04:46:42;31.30;;;17.30;;
12332;SDS011;6232;48.094;11.288;2022-12-17T04:49:46;31.43;;;17.70;;
12332;SDS011;6232;48.094;11.288;2022-12-17T04:52:57;21.90;;;14.50;;
12332;SDS011;6232;48.094;11.288;2022-12-17T04:56:01;24.40;;;16.27;;
12332;SDS011;6232;48.094;11.288;2022-12-17T04:59:06;24.00;;;17.10;;
12332;SDS011;6232;48.094;11.288;2022-12-17T05:02:10;30.67;;;15.27;;
12332;SDS011;6232;48.094;11.288;2022-12-17T05:05:14;28.17;;;15.93;;
12332;SDS011;6232;48.094;11.288;2022-12-17T05:08:18;29.43;;;15.17;;
12332;SDS011;6232;48.094;11.288;2022-12-17T05:11:23;33.17;;;17.57;;
12332;SDS011;6232;48.094;11.288;2022-12-17T05:14:27;26.07;;;16.17;;
12332;SDS011;6232;48.094;11.288;2022-12-17T05:17:32;27.73;;;16.57;;
12332;SDS011;6232;48.094;11.288;2022-12-17T05:20:36;26.50;;;15.40;;
12332;SDS011;6232;48.094;11.288;2022-12-17T05:23:40;28.43;;;16.90;;
12332;SDS011;6232;48.094;11.288;2022-12-17T05:26:45;28.57;;;17.90;;
12332;SDS011;6232;48.094;11.288;2022-12-17T05:29:49;34.63;;;16.50;;
12332;SDS011;6232;48.094;11.288;2022-12-17T05:32:57;29.50;;;16.67;;
12332;SDS011;6232;48.094;11.288;2022-12-17T05:36:02;36.00;;;17.53;;
12332;SDS011;6232;48.094;11.288;2022-12-17T05:39:06;24.83;;;14.50;;
12332;SDS011;6232;48.094;11.288;2022-12-17T05:42:10;29.97;;;18.73;;
12332;SDS011;6232;48.094;11.288;2022-12-17T05:45:32;27.43;;;18.07;;
12332;SDS011;6232;48.094;11.288;2022-12-17T05:48:36;27.53;;;15.70;;
12332;SDS011;6232;48.094;11.288;2022-12-17T05:51:40;26.53;;;16.93;;
12332;SDS011;6232;48.094;11.288;2022-12-17T05:54:44;24.10;;;14.87;;
12332;SDS011;6232;48.094;11.288;2022-12-17T05:57:48;28.93;;;16.90;;
12332;SDS011;6232;48.094;11.288;2022-12-17T06:00:56;27.73;;;15.60;;
12332;SDS011;6232;48.094;11.288;2022-12-17T06:04:01;25.40;;;14.97;;
12332;SDS011;6232;48.094;11.288;2022-12-17T06:07:05;28.10;;;15.17;;
12332;SDS011;6232;48.094;11.288;2022-12-17T06:10:09;27.27;;;15.00;;
12332;SDS011;6232;48.094;11.288;2022-12-17T06:13:14;27.73;;;14.90;;
12332;SDS011;6232;48.094;11.288;2022-12-17T06:16:18;24.77;;;15.60;;
12332;SDS011;6232;48.094;11.288;2022-12-17T06:19:22;26.43;;;17.30;;
12332;SDS011;6232;48.094;11.288;2022-12-17T06:22:26;29.50;;;16.37;;
12332;SDS011;6232;48.094;11.288;2022-12-17T06:25:31;23.17;;;14.30;;
12332;SDS011;6232;48.094;11.288;2022-12-17T06:28:35;22.90;;;15.23;;
12332;SDS011;6232;48.094;11.288;2022-12-17T06:31:39;25.53;;;14.67;;
12332;SDS011;6232;48.094;11.288;2022-12-17T06:34:43;20.40;;;13.30;;
12332;SDS011;6232;48.094;11.288;2022-12-17T06:37:56;26.20;;;15.90;;
12332;SDS011;6232;48.094;11.288;2022-12-17T06:41:00;24.73;;;16.10;;
12332;SDS011;6232;48.094;11.288;2022-12-17T06:44:05;25.80;;;15.90;;
12332;SDS011;6232;48.094;11.288;2022-12-17T06:47:13;26.27;;;14.70;;
12332;SDS011;6232;48.094;11.288;2022-12-17T06:50:18;23.57;;;17.00;;
12332;SDS011;6232;48.094;11.288;2022-12-17T06:53:22;23.30;;;13.70;;
12332;SDS011;6232;48.094;11.288;2022-12-17T06:56:26;29.30;;;13.60;;
12332;SDS011;6232;48.094;11.288;2022-12-17T06:59:30;16.60;;;12.90;;
12332;SDS011;6232;48.094;11.288;2022-12-17T07:02:34;21.20;;;13.00;;
12332;SDS011;6232;48.094;11.288;2022-12-17T07:05:39;18.37;;;13.53;;
12332;SDS011;6232;48.094;11.288;2022-12-17T07:08:43;33.97;;;16.13;;
12332;SDS011;6232;48.094;11.288;2022-12-17T07:11:47;20.00;;;13.30;;
12332;SDS011;6232;48.094;11.288;2022-12-17T07:14:51;23.23;;;14.50;;
12332;SDS011;6232;48.094;11.288;2022-12-17T07:17:59;23.93;;;15.07;;
12332;SDS011;6232;48.094;11.288;2022-12-17T07:21:03;20.33;;;12.00;;
12332;SDS011;6232;48.094;11.288;2022-12-17T07:24:08;27.00;;;12.50;;
12332;SDS011;6232;48.094;11.288;2022-12-17T07:27:12;20.87;;;11.90;;
12332;SDS011;6232;48.094;11.288;2022-12-17T07:30:16;17.10;;;12.13;;
12332;SDS011;6232;48.094;11.288;2022-12-17T07:33:30;35.37;;;20.67;;
12332;SDS011;6232;48.094;11.288;2022-12-17T07:36:34;37.03;;;18.90;;
12332;SDS011;6232;48.094;11.288;2022-12-17T07:39:38;21.87;;;13.00;;
12332;SDS011;6232;48.094;11.288;2022-12-17T07:42:43;25.17;;;12.00;;
12332;SDS011;6232;48.094;11.288;2022-12-17T07:45:47;28.17;;;16.30;;
12332;SDS011;6232;48.094;11.288;2022-12-17T07:48:51;24.30;;;13.43;;
12332;SDS011;6232;48.094;11.288;2022-12-17T07:51:55;24.73;;;14.90;;
12332;SDS011;6232;48.094;11.288;2022-12-17T07:54:59;24.23;;;14.57;;
12332;SDS011;6232;48.094;11.288;2022-12-17T07:58:04;21.43;;;14.80;;
12332;SDS011;6232;48.094;11.288;2022-12-17T08:01:09;29.87;;;14.90;;
12332;SDS011;6232;48.094;11.288;2022-12-17T08:04:13;30.27;;;17.03;;
12332;SDS011;6232;48.094;11.288;2022-12-17T08:07:17;25.50;;;14.13;;
12332;SDS011;6232;48.094;11.288;2022-12-17T08:10:22;30.70;;;15.97;;
12332;SDS011;6232;48.094;11.288;2022-12-17T08:13:26;37.97;;;13.80;;
12332;SDS011;6232;48.094;11.288;2022-12-17T08:16:31;35.17;;;16.60;;
12332;SDS011;6232;48.094;11.288;2022-12-17T08:19:35;29.30;;;15.80;;
12332;SDS011;6232;48.094;11.288;2022-12-17T08:22:39;25.37;;;15.60;;
12332;SDS011;6232;48.094;11.288;2022-12-17T08:26:29;34.60;;;18.47;;
12332;SDS011;6232;48.094;11.288;2022-12-17T08:29:07;29.07;;;16.20;;
12332;SDS011;6232;48.094;11.288;2022-12-17T08:32:12;28.03;;;16.57;;
12332;SDS011;6232;48.094;11.288;2022-12-17T08:35:16;26.97;;;15.80;;
12332;SDS011;6232;48.094;11.288;2022-12-17T08:38:20;30.90;;;16.50;;
12332;SDS011;6232;48.094;11.288;2022-12-17T08:41:24;29.27;;;18.07;;
12332;SDS011;6232;48.094;11.288;2022-12-17T08:44:28;37.00;;;17.00;;
12332;SDS011;6232;48.094;11.288;2022-12-17T08:47:33;29.37;;;15.33;;
12332;SDS011;6232;48.094;11.288;2022-12-17T08:50:37;34.60;;;19.77;;
12332;SDS011;6232;48.094;11.288;2022-12-17T08:53:41;39.07;;;20.83;;
12332;SDS011;6232;48.094;11.288;2022-12-17T08:56:46;34.80;;;20.73;;
12332;SDS011;6232;48.094;11.288;2022-12-17T08:59:50;41.20;;;21.20;;
12332;SDS011;6232;48.094;11.288;2022-12-17T09:02:55;34.33;;;20.67;;
12332;SDS011;6232;48.094;11.288;2022-12-17T09:05:59;41.73;;;19.13;;
12332;SDS011;6232;48.094;11.288;2022-12-17T09:09:04;24.77;;;17.10;;
12332;SDS011;6232;48.094;11.288;2022-12-17T09:12:08;33.80;;;20.70;;
12332;SDS011;6232;48.094;11.288;2022-12-17T09:15:13;31.93;;;17.23;;
12332;SDS011;6232;48.094;11.288;2022-12-17T09:18:19;37.07;;;17.80;;
12332;SDS011;6232;48.094;11.288;2022-12-17T09:21:25;27.37;;;16.90;;
12332;SDS011;6232;48.094;11.288;2022-12-17T09:24:29;32.33;;;19.30;;
12332;SDS011;6232;48.094;11.288;2022-12-17T09:27:34;35.80;;;20.30;;
12332;SDS011;6232;48.094;11.288;2022-12-17T09:30:38;47.63;;;19.40;;
12332;SDS011;6232;48.094;11.288;2022-12-17T09:33:43;32.17;;;19.60;;
12332;SDS011;6232;48.094;11.288;2022-12-17T09:36:47;30.30;;;19.13;;
12332;SDS011;6232;48.094;11.288;2022-12-17T09:39:51;35.70;;;20.07;;
12332;SDS011;6232;48.094;11.288;2022-12-17T09:42:57;35.63;;;20.73;;
12332;SDS011;6232;48.094;11.288;2022-12-17T09:46:20;37.30;;;21.00;;
12332;SDS011;6232;48.094;11.288;2022-12-17T09:49:25;28.33;;;16.00;;
12332;SDS011;6232;48.094;11.288;2022-12-17T09:52:32;29.90;;;16.07;;
12332;SDS011;6232;48.094;11.288;2022-12-17T09:55:46;32.00;;;15.33;;
12332;SDS011;6232;48.094;11.288;2022-12-17T09:58:51;30.60;;;17.43;;
12332;SDS011;6232;48.094;11.288;2022-12-17T10:01:55;30.73;;;15.73;;
12332;SDS011;6232;48.094;11.288;2022-12-17T10:05:24;27.30;;;16.43;;
12332;SDS011;6232;48.094;11.288;2022-12-17T10:08:28;31.23;;;16.60;;
12332;SDS011;6232;48.094;11.288;2022-12-17T10:11:33;21.70;;;14.27;;
12332;SDS011;6232;48.094;11.288;2022-12-17T10:14:37;32.07;;;16.10;;
12332;SDS011;6232;48.094;11.288;2022-12-17T10:17:42;26.37;;;16.77;;
12332;SDS011;6232;48.094;11.288;2022-12-17T10:20:48;27.10;;;15.60;;
12332;SDS011;6232;48.094;11.288;2022-12-17T10:24:05;32.53;;;14.33;;
12332;SDS011;6232;48.094;11.288;2022-12-17T10:27:09;22.07;;;14.10;;
12332;SDS011;6232;48.094;11.288;2022-12-17T10:30:14;46.70;;;22.50;;
12332;SDS011;6232;48.094;11.288;2022-12-17T10:33:19;29.33;;;17.73;;
12332;SDS011;6232;48.094;11.288;2022-12-17T10:36:24;33.87;;;18.60;;
12332;SDS011;6232;48.094;11.288;2022-12-17T10:39:28;24.40;;;16.50;;
12332;SDS011;6232;48.094;11.288;2022-12-17T10:42:36;32.77;;;18.87;;
12332;SDS011;6232;48.094;11.288;2022-12-17T10:45:42;29.87;;;17.10;;
12332;SDS011;6232;48.094;11.288;2022-12-17T10:49:08;34.30;;;17.97;;
12332;SDS011;6232;48.094;11.288;2022-12-17T10:52:21;33.10;;;21.40;;
12332;SDS011;6232;48.094;11.288;2022-12-17T10:55:28;35.30;;;18.80;;
12332;SDS011;6232;48.094;11.288;2022-12-17T10:58:33;33.63;;;19.47;;
12332;SDS011;6232;48.094;11.288;2022-12-17T11:01:40;35.07;;;19.40;;
12332;SDS011;6232;48.094;11.288;2022-12-17T11:04:54;37.70;;;20.87;;
12332;SDS011;6232;48.094;11.288;2022-12-17T11:08:01;32.40;;;20.07;;
12332;SDS011;6232;48.094;11.288;2022-12-17T11:11:06;39.03;;;22.47;;
12332;SDS011;6232;48.094;11.288;2022-12-17T11:14:10;58.83;;;21.60;;
12332;SDS011;6232;48.094;11.288;2022-12-17T11:17:16;38.40;;;20.20;;
12332;SDS011;6232;48.094;11.288;2022-12-17T11:20:29;35.33;;;18.10;;
12332;SDS011;6232;48.094;11.288;2022-12-17T11:23:37;31.23;;;17.60;;
12332;SDS011;6232;48.094;11.288;2022-12-17T11:26:44;35.30;;;20.10;;
12332;SDS011;6232;48.094;11.288;2022-12-17T11:29:50;33.97;;;19.23;;
12332;SDS011;6232;48.094;11.288;2022-12-17T11:36:13;32.37;;;17.20;;
12332;SDS011;6232;48.094;11.288;2022-12-17T11:42:48;33.27;;;16.63;;
12332;SDS011;6232;48.094;11.288;2022-12-17T11:49:18;43.23;;;21.40;;
12332;SDS011;6232;48.094;11.288;2022-12-17T11:52:29;36.37;;;18.47;;
12332;SDS011;6232;48.094;11.288;2022-12-17T11:55:40;32.07;;;17.37;;
12332;SDS011;6232;48.094;11.288;2022-12-17T11:58:49;33.10;;;18.43;;
12332;SDS011;6232;48.094;11.288;2022-12-17T12:02:02;38.10;;;21.60;;
12332;SDS011;6232;48.094;11.288;2022-12-17T12:08:26;56.33;;;35.20;;
12332;SDS011;6232;48.094;11.288;2022-12-17T12:11:43;28.60;;;16.17;;
12332;SDS011;6232;48.094;11.288;2022-12-17T12:18:13;30.30;;;16.47;;
12332;SDS011;6232;48.094;11.288;2022-12-17T12:34:07;33.13;;;16.30;;
12332;SDS011;6232;48.094;11.288;2022-12-17T12:37:15;31.97;;;17.87;;
12332;SDS011;6232;48.094;11.288;2022-12-17T12:43:57;27.80;;;15.90;;
12332;SDS011;6232;48.094;11.288;2022-12-17T12:47:05;29.60;;;16.03;;
12332;SDS011;6232;48.094;11.288;2022-12-17T12:50:20;25.80;;;16.53;;
12332;SDS011;6232;48.094;11.288;2022-12-17T12:53:25;30.13;;;17.07;;
12332;SDS011;6232;48.094;11.288;2022-12-17T12:56:34;33.57;;;16.53;;
12332;SDS011;6232;48.094;11.288;2022-12-17T12:59:38;30.10;;;16.43;;
12332;SDS011;6232;48.094;11.288;2022-12-17T13:02:44;34.60;;;16.97;;
12332;SDS011;6232;48.094;11.288;2022-12-17T13:05:48;34.33;;;17.50;;
12332;SDS011;6232;48.094;11.288;2022-12-17T13:08:37;49.60;;;27.47;;
12332;SDS011;6232;48.094;11.288;2022-12-17T13:11:27;34.47;;;21.07;;
12332;SDS011;6232;48.094;11.288;2022-12-17T13:14:17;32.80;;;17.97;;
12332;SDS011;6232;48.094;11.288;2022-12-17T13:17:25;30.63;;;18.27;;
12332;SDS011;6232;48.094;11.288;2022-12-17T13:20:20;26.80;;;18.10;;
12332;SDS011;6232;48.094;11.288;2022-12-17T13:26:03;24.70;;;17.23;;
12332;SDS011;6232;48.094;11.288;2022-12-17T13:31:51;25.07;;;15.50;;
12332;SDS011;6232;48.094;11.288;2022-12-17T13:37:35;28.73;;;17.70;;
12332;SDS011;6232;48.094;11.288;2022-12-17T13:40:31;33.30;;;19.57;;
12332;SDS011;6232;48.094;11.288;2022-12-17T13:43:19;33.63;;;17.60;;
12332;SDS011;6232;48.094;11.288;2022-12-17T13:46:05;37.20;;;20.00;;
12332;SDS011;6232;48.094;11.288;2022-12-17T13:48:51;88.00;;;42.30;;
12332;SDS011;6232;48.094;11.288;2022-12-17T13:51:37;145.20;;;62.60;;
12332;SDS011;6232;48.094;11.288;2022-12-17T13:54:23;76.00;;;37.40;;
12332;SDS011;6232;48.094;11.288;2022-12-17T13:57:18;55.50;;;28.67;;
12332;SDS011;6232;48.094;11.288;2022-12-17T14:00:04;37.23;;;22.23;;
12332;SDS011;6232;48.094;11.288;2022-12-17T14:02:50;42.30;;;20.13;;
12332;SDS011;6232;48.094;11.288;2022-12-17T14:05:37;59.20;;;34.17;;
12332;SDS011;6232;48.094;11.288;2022-12-17T14:08:27;36.80;;;21.50;;
12332;SDS011;6232;48.094;11.288;2022-12-17T14:11:15;39.80;;;20.93;;
12332;SDS011;6232;48.094;11.288;2022-12-17T14:14:32;37.70;;;22.60;;
12332;SDS011;6232;48.094;11.288;2022-12-17T14:17:20;29.47;;;18.00;;
12332;SDS011;6232;48.094;11.288;2022-12-17T14:22:58;28.13;;;16.53;;
12332;SDS011;6232;48.094;11.288;2022-12-17T14:25:44;30.07;;;17.10;;
12332;SDS011;6232;48.094;11.288;2022-12-17T14:28:31;35.30;;;18.40;;
12332;SDS011;6232;48.094;11.288;2022-12-17T14:31:24;30.90;;;17.80;;
12332;SDS011;6232;48.094;11.288;2022-12-17T14:34:12;31.13;;;17.97;;
12332;SDS011;6232;48.094;11.288;2022-12-17T14:36:58;32.80;;;18.10;;
12332;SDS011;6232;48.094;11.288;2022-12-17T14:39:44;27.90;;;16.23;;
12332;SDS011;6232;48.094;11.288;2022-12-17T14:42:33;30.93;;;18.40;;
12332;SDS011;6232;48.094;11.288;2022-12-17T14:45:23;29.50;;;16.10;;
12332;SDS011;6232;48.094;11.288;2022-12-17T14:48:12;30.17;;;17.87;;
12332;SDS011;6232;48.094;11.288;2022-12-17T14:50:59;30.90;;;16.60;;
12332;SDS011;6232;48.094;11.288;2022-12-17T14:53:45;29.90;;;17.50;;
12332;SDS011;6232;48.094;11.288;2022-12-17T14:56:31;32.20;;;20.40;;
12332;SDS011;6232;48.094;11.288;2022-12-17T15:05:03;42.33;;;22.30;;
12332;SDS011;6232;48.094;11.288;2022-12-17T15:07:48;36.23;;;19.80;;
12332;SDS011;6232;48.094;11.288;2022-12-17T15:10:36;38.43;;;22.10;;
12332;SDS011;6232;48.094;11.288;2022-12-17T15:13:21;37.53;;;21.10;;
12332;SDS011;6232;48.094;11.288;2022-12-17T15:16:07;37.97;;;21.97;;
12332;SDS011;6232;48.094;11.288;2022-12-17T15:18:52;45.03;;;22.30;;
12332;SDS011;6232;48.094;11.288;2022-12-17T15:21:38;39.00;;;20.77;;
12332;SDS011;6232;48.094;11.288;2022-12-17T15:24:23;38.23;;;22.53;;
12332;SDS011;6232;48.094;11.288;2022-12-17T15:27:13;78.50;;;34.00;;
12332;SDS011;6232;48.094;11.288;2022-12-17T15:29:58;50.27;;;27.20;;
12332;SDS011;6232;48.094;11.288;2022-12-17T15:32:44;66.07;;;31.97;;
12332;SDS011;6232;48.094;11.288;2022-12-17T15:35:30;80.50;;;39.20;;
12332;SDS011;6232;48.094;11.288;2022-12-17T15:38:16;66.67;;;33.40;;
12332;SDS011;6232;48.094;11.288;2022-12-17T15:41:02;53.30;;;30.27;;
12332;SDS011;6232;48.094;11.288;2022-12-17T15:44:10;62.57;;;30.77;;
12332;SDS011;6232;48.094;11.288;2022-12-17T15:46:56;44.07;;;25.73;;
12332;SDS011;6232;48.094;11.288;2022-12-17T15:49:41;65.77;;;33.43;;
12332;SDS011;6232;48.094;11.288;2022-12-17T15:52:29;51.07;;;28.60;;
12332;SDS011;6232;48.094;11.288;2022-12-17T15:55:14;51.97;;;26.47;;
12332;SDS011;6232;48.094;11.288;2022-12-17T15:58:02;70.73;;;34.60;;
12332;SDS011;6232;48.094;11.288;2022-12-17T16:00:48;66.47;;;37.47;;
12332;SDS011;6232;48.094;11.288;2022-12-17T16:03:33;55.47;;;30.00;;
12332;SDS011;6232;48.094;11.288;2022-12-17T16:06:19;68.00;;;35.80;;
12332;SDS011;6232;48.094;11.288;2022-12-17T16:09:05;80.27;;;37.43;;
12332;SDS011;6232;48.094;11.288;2022-12-17T16:11:53;56.13;;;33.10;;
12332;SDS011;6232;48.094;11.288;2022-12-17T16:14:39;53.23;;;30.00;;
12332;SDS011;6232;48.094;11.288;2022-12-17T16:17:24;51.97;;;27.30;;
12332;SDS011;6232;48.094;11.288;2022-12-17T16:20:10;57.93;;;31.00;;
12332;SDS011;6232;48.094;11.288;2022-12-17T16:22:56;53.43;;;25.97;;
12332;SDS011;6232;48.094;11.288;2022-12-17T16:25:41;53.37;;;28.77;;
12332;SDS011;6232;48.094;11.288;2022-12-17T16:28:27;60.77;;;31.40;;
12332;SDS011;6232;48.094;11.288;2022-12-17T16:31:13;56.30;;;30.10;;
12332;SDS011;6232;48.094;11.288;2022-12-17T16:33:59;61.23;;;31.47;;
12332;SDS011;6232;48.094;11.288;2022-12-17T16:36:45;58.80;;;31.03;;
12332;SDS011;6232;48.094;11.288;2022-12-17T16:39:30;55.27;;;30.17;;
12332;SDS011;6232;48.094;11.288;2022-12-17T16:42:16;68.93;;;30.80;;
12332;SDS011;6232;48.094;11.288;2022-12-17T16:45:01;62.77;;;30.50;;
12332;SDS011;6232;48.094;11.288;2022-12-17T16:47:48;63.80;;;29.90;;
12332;SDS011;6232;48.094;11.288;2022-12-17T16:50:34;54.37;;;28.43;;
12332;SDS011;6232;48.094;11.288;2022-12-17T16:53:20;63.17;;;32.37;;
12332;SDS011;6232;48.094;11.288;2022-12-17T16:56:06;48.77;;;27.73;;
12332;SDS011;6232;48.094;11.288;2022-12-17T16:58:52;57.77;;;32.37;;
12332;SDS011;6232;48.094;11.288;2022-12-17T17:01:38;64.83;;;26.70;;
12332;SDS011;6232;48.094;11.288;2022-12-17T17:04:23;50.43;;;25.90;;
12332;SDS011;6232;48.094;11.288;2022-12-17T17:07:09;45.10;;;26.03;;
12332;SDS011;6232;48.094;11.288;2022-12-17T17:09:54;53.43;;;26.90;;
12332;SDS011;6232;48.094;11.288;2022-12-17T17:12:41;69.23;;;26.17;;
12332;SDS011;6232;48.094;11.288;2022-12-17T17:15:27;50.60;;;28.57;;
12332;SDS011;6232;48.094;11.288;2022-12-17T17:18:13;46.80;;;25.00;;
12332;SDS011;6232;48.094;11.288;2022-12-17T17:24:05;46.10;;;25.03;;
12332;SDS011;6232;48.094;11.288;2022-12-17T17:26:51;49.07;;;25.07;;
12332;SDS011;6232;48.094;11.288;2022-12-17T17:29:37;57.20;;;26.70;;
12332;SDS011;6232;48.094;11.288;2022-12-17T17:32:23;48.47;;;24.47;;
12332;SDS011;6232;48.094;11.288;2022-12-17T17:35:08;39.37;;;22.77;;
12332;SDS011;6232;48.094;11.288;2022-12-17T17:37:54;46.80;;;28.47;;
12332;SDS011;6232;48.094;11.288;2022-12-17T17:40:40;45.63;;;24.90;;
12332;SDS011;6232;48.094;11.288;2022-12-17T17:43:25;33.87;;;17.00;;
12332;SDS011;6232;48.094;11.288;2022-12-17T17:46:15;34.17;;;17.30;;
12332;SDS011;6232;48.094;11.288;2022-12-17T17:49:01;30.27;;;18.80;;
12332;SDS011;6232;48.094;11.288;2022-12-17T17:51:48;35.13;;;18.73;;
12332;SDS011;6232;48.094;11.288;2022-12-17T17:54:33;48.97;;;24.63;;
12332;SDS011;6232;48.094;11.288;2022-12-17T17:57:19;52.90;;;29.30;;
12332;SDS011;6232;48.094;11.288;2022-12-17T18:00:05;50.17;;;25.17;;
12332;SDS011;6232;48.094;11.288;2022-12-17T18:02:50;40.83;;;22.23;;
12332;SDS011;6232;48.094;11.288;2022-12-17T18:05:36;41.07;;;21.80;;
12332;SDS011;6232;48.094;11.288;2022-12-17T18:08:22;35.13;;;17.90;;
12332;SDS011;6232;48.094;11.288;2022-12-17T18:11:09;33.03;;;18.27;;
12332;SDS011;6232;48.094;11.288;2022-12-17T18:13:55;42.63;;;21.20;;
12332;SDS011;6232;48.094;11.288;2022-12-17T18:16:41;30.37;;;17.53;;
12332;SDS011;6232;48.094;11.288;2022-12-17T18:19:28;40.80;;;23.40;;
12332;SDS011;6232;48.094;11.288;2022-12-17T18:22:13;67.93;;;30.77;;
12332;SDS011;6232;48.094;11.288;2022-12-17T18:24:59;59.83;;;29.00;;
12332;SDS011;6232;48.094;11.288;2022-12-17T18:27:45;47.73;;;26.10;;
12332;SDS011;6232;48.094;11.288;2022-12-17T18:30:36;31.07;;;17.30;;
12332;SDS011;6232;48.094;11.288;2022-12-17T18:33:22;25.23;;;15.00;;